sensor_id;sensor_type;location;lat;lon;timestamp;P1;durP1;ratioP1;P2;durP2;ratioP2
75971;SDS011;64651;47.540;19.088;2023-06-19T00:00:34;15.38;;;9.98;;
75971;SDS011;64651;47.540;19.088;2023-06-19T00:05:36;13.23;;;8.40;;
75971;SDS011;64651;47.540;19.088;2023-06-19T00:10:38;15.55;;;8.38;;
75971;SDS011;64651;47.540;19.088;2023-06-19T00:15:41;12.50;;;8.65;;
75971;SDS011;64651;47.540;19.088;2023-06-19T00:20:43;15.23;;;8.57;;
75971;SDS011;64651;47.540;19.088;2023-06-19T00:25:47;13.85;;;8.20;;
75971;SDS011;64651;47.540;19.088;2023-06-19T00:30:50;14.77;;;9.10;;
75971;SDS011;64651;47.540;19.088;2023-06-19T00:35:53;14.40;;;8.48;;
75971;SDS011;64651;47.540;19.088;2023-06-19T00:40:57;13.88;;;8.90;;
75971;SDS011;64651;47.540;19.088;2023-06-19T00:45:59;14.40;;;9.05;;
75971;SDS011;64651;47.540;19.088;2023-06-19T00:51:03;14.40;;;9.20;;
75971;SDS011;64651;47.540;19.088;2023-06-19T00:56:05;15.07;;;9.33;;
75971;SDS011;64651;47.540;19.088;2023-06-19T01:01:07;14.23;;;8.77;;
75971;SDS011;64651;47.540;19.088;2023-06-19T01:06:13;14.25;;;8.70;;
75971;SDS011;64651;47.540;19.088;2023-06-19T01:11:17;15.00;;;9.10;;
75971;SDS011;64651;47.540;19.088;2023-06-19T01:16:29;15.15;;;9.02;;
75971;SDS011;64651;47.540;19.088;2023-06-19T01:21:32;14.53;;;8.43;;
75971;SDS011;64651;47.540;19.088;2023-06-19T01:26:35;16.12;;;8.60;;
75971;SDS011;64651;47.540;19.088;2023-06-19T01:31:38;15.75;;;9.18;;
75971;SDS011;64651;47.540;19.088;2023-06-19T01:36:49;14.70;;;8.65;;
75971;SDS011;64651;47.540;19.088;2023-06-19T01:41:53;15.27;;;9.38;;
75971;SDS011;64651;47.540;19.088;2023-06-19T01:46:57;14.63;;;9.40;;
75971;SDS011;64651;47.540;19.088;2023-06-19T01:51:59;14.95;;;9.05;;
75971;SDS011;64651;47.540;19.088;2023-06-19T01:57:02;15.68;;;9.32;;
75971;SDS011;64651;47.540;19.088;2023-06-19T02:02:05;15.80;;;9.63;;
75971;SDS011;64651;47.540;19.088;2023-06-19T02:07:08;14.75;;;9.05;;
75971;SDS011;64651;47.540;19.088;2023-06-19T02:12:10;15.67;;;9.20;;
75971;SDS011;64651;47.540;19.088;2023-06-19T02:17:12;15.32;;;9.38;;
75971;SDS011;64651;47.540;19.088;2023-06-19T02:22:15;16.05;;;9.52;;
75971;SDS011;64651;47.540;19.088;2023-06-19T02:27:17;14.87;;;8.75;;
75971;SDS011;64651;47.540;19.088;2023-06-19T02:32:19;15.60;;;9.32;;
75971;SDS011;64651;47.540;19.088;2023-06-19T02:37:21;15.93;;;9.70;;
75971;SDS011;64651;47.540;19.088;2023-06-19T02:42:24;16.52;;;9.32;;
75971;SDS011;64651;47.540;19.088;2023-06-19T02:47:26;16.12;;;9.38;;
75971;SDS011;64651;47.540;19.088;2023-06-19T02:52:28;15.68;;;9.45;;
75971;SDS011;64651;47.540;19.088;2023-06-19T02:57:31;15.23;;;9.27;;
75971;SDS011;64651;47.540;19.088;2023-06-19T03:02:33;16.47;;;9.73;;
75971;SDS011;64651;47.540;19.088;2023-06-19T03:07:36;15.23;;;9.63;;
75971;SDS011;64651;47.540;19.088;2023-06-19T03:12:39;15.18;;;9.43;;
75971;SDS011;64651;47.540;19.088;2023-06-19T03:17:41;17.75;;;9.98;;
75971;SDS011;64651;47.540;19.088;2023-06-19T03:22:43;16.40;;;9.88;;
75971;SDS011;64651;47.540;19.088;2023-06-19T03:27:46;17.17;;;10.10;;
75971;SDS011;64651;47.540;19.088;2023-06-19T03:32:48;16.73;;;10.10;;
75971;SDS011;64651;47.540;19.088;2023-06-19T03:37:50;15.35;;;9.57;;
75971;SDS011;64651;47.540;19.088;2023-06-19T03:42:53;14.68;;;9.40;;
75971;SDS011;64651;47.540;19.088;2023-06-19T03:47:55;17.73;;;9.43;;
75971;SDS011;64651;47.540;19.088;2023-06-19T03:52:58;17.80;;;9.80;;
75971;SDS011;64651;47.540;19.088;2023-06-19T03:58:00;16.05;;;9.30;;
75971;SDS011;64651;47.540;19.088;2023-06-19T04:03:02;14.65;;;9.27;;
75971;SDS011;64651;47.540;19.088;2023-06-19T04:08:04;14.63;;;9.15;;
75971;SDS011;64651;47.540;19.088;2023-06-19T04:13:07;15.02;;;10.00;;
75971;SDS011;64651;47.540;19.088;2023-06-19T04:18:09;15.23;;;9.20;;
75971;SDS011;64651;47.540;19.088;2023-06-19T04:23:12;14.48;;;9.23;;
75971;SDS011;64651;47.540;19.088;2023-06-19T04:28:14;14.38;;;9.73;;
75971;SDS011;64651;47.540;19.088;2023-06-19T04:33:16;14.90;;;9.32;;
75971;SDS011;64651;47.540;19.088;2023-06-19T04:38:23;17.75;;;8.95;;
75971;SDS011;64651;47.540;19.088;2023-06-19T04:43:26;16.27;;;9.97;;
75971;SDS011;64651;47.540;19.088;2023-06-19T04:48:28;15.90;;;9.50;;
75971;SDS011;64651;47.540;19.088;2023-06-19T04:53:31;17.08;;;9.73;;
75971;SDS011;64651;47.540;19.088;2023-06-19T04:58:33;14.45;;;9.20;;
75971;SDS011;64651;47.540;19.088;2023-06-19T05:03:35;14.38;;;9.02;;
75971;SDS011;64651;47.540;19.088;2023-06-19T05:08:38;13.67;;;8.33;;
75971;SDS011;64651;47.540;19.088;2023-06-19T05:13:40;15.60;;;8.93;;
75971;SDS011;64651;47.540;19.088;2023-06-19T05:18:42;13.68;;;8.98;;
75971;SDS011;64651;47.540;19.088;2023-06-19T05:23:59;12.80;;;8.48;;
75971;SDS011;64651;47.540;19.088;2023-06-19T05:29:02;13.70;;;8.52;;
75971;SDS011;64651;47.540;19.088;2023-06-19T05:34:10;14.97;;;8.20;;
75971;SDS011;64651;47.540;19.088;2023-06-19T05:39:13;14.23;;;8.85;;
75971;SDS011;64651;47.540;19.088;2023-06-19T05:44:15;14.27;;;9.00;;
75971;SDS011;64651;47.540;19.088;2023-06-19T05:49:18;15.00;;;9.60;;
75971;SDS011;64651;47.540;19.088;2023-06-19T05:54:21;14.50;;;8.40;;
75971;SDS011;64651;47.540;19.088;2023-06-19T05:59:23;14.33;;;8.70;;
75971;SDS011;64651;47.540;19.088;2023-06-19T06:04:25;18.15;;;9.43;;
75971;SDS011;64651;47.540;19.088;2023-06-19T06:09:28;15.13;;;9.13;;
75971;SDS011;64651;47.540;19.088;2023-06-19T06:14:30;15.23;;;9.93;;
75971;SDS011;64651;47.540;19.088;2023-06-19T06:19:32;17.15;;;8.95;;
75971;SDS011;64651;47.540;19.088;2023-06-19T06:24:35;14.73;;;9.80;;
75971;SDS011;64651;47.540;19.088;2023-06-19T06:29:37;14.85;;;9.63;;
75971;SDS011;64651;47.540;19.088;2023-06-19T06:34:39;16.95;;;9.68;;
75971;SDS011;64651;47.540;19.088;2023-06-19T06:39:42;15.30;;;9.77;;
75971;SDS011;64651;47.540;19.088;2023-06-19T06:44:44;15.95;;;9.70;;
75971;SDS011;64651;47.540;19.088;2023-06-19T06:49:48;14.07;;;9.17;;
75971;SDS011;64651;47.540;19.088;2023-06-19T06:54:50;16.15;;;9.75;;
75971;SDS011;64651;47.540;19.088;2023-06-19T06:59:52;15.77;;;10.32;;
75971;SDS011;64651;47.540;19.088;2023-06-19T07:04:55;16.73;;;11.15;;
75971;SDS011;64651;47.540;19.088;2023-06-19T07:09:57;17.42;;;9.75;;
75971;SDS011;64651;47.540;19.088;2023-06-19T07:14:59;15.53;;;10.50;;
75971;SDS011;64651;47.540;19.088;2023-06-19T07:20:01;16.20;;;10.15;;
75971;SDS011;64651;47.540;19.088;2023-06-19T07:25:04;16.05;;;10.30;;
75971;SDS011;64651;47.540;19.088;2023-06-19T07:30:07;15.70;;;10.17;;
75971;SDS011;64651;47.540;19.088;2023-06-19T07:35:09;14.82;;;8.93;;
75971;SDS011;64651;47.540;19.088;2023-06-19T07:40:14;14.83;;;9.37;;
75971;SDS011;64651;47.540;19.088;2023-06-19T07:45:16;13.85;;;10.00;;
75971;SDS011;64651;47.540;19.088;2023-06-19T07:50:19;14.90;;;9.80;;
75971;SDS011;64651;47.540;19.088;2023-06-19T07:55:22;14.23;;;10.40;;
75971;SDS011;64651;47.540;19.088;2023-06-19T08:00:24;15.32;;;10.07;;
75971;SDS011;64651;47.540;19.088;2023-06-19T08:05:27;15.40;;;10.47;;
75971;SDS011;64651;47.540;19.088;2023-06-19T08:10:29;13.80;;;10.20;;
75971;SDS011;64651;47.540;19.088;2023-06-19T08:15:32;13.80;;;9.30;;
75971;SDS011;64651;47.540;19.088;2023-06-19T08:20:34;15.23;;;11.50;;
75971;SDS011;64651;47.540;19.088;2023-06-19T08:25:36;14.43;;;11.88;;
75971;SDS011;64651;47.540;19.088;2023-06-19T08:30:41;13.70;;;11.83;;
75971;SDS011;64651;47.540;19.088;2023-06-19T08:35:43;13.15;;;11.52;;
75971;SDS011;64651;47.540;19.088;2023-06-19T08:40:47;13.85;;;12.35;;
75971;SDS011;64651;47.540;19.088;2023-06-19T08:46:00;14.77;;;13.13;;
75971;SDS011;64651;47.540;19.088;2023-06-19T08:51:14;14.80;;;13.23;;
75971;SDS011;64651;47.540;19.088;2023-06-19T08:56:16;17.00;;;15.50;;
75971;SDS011;64651;47.540;19.088;2023-06-19T09:01:19;17.52;;;15.85;;
75971;SDS011;64651;47.540;19.088;2023-06-19T09:06:21;17.52;;;15.85;;
75971;SDS011;64651;47.540;19.088;2023-06-19T09:11:24;17.25;;;15.85;;
75971;SDS011;64651;47.540;19.088;2023-06-19T09:16:36;20.37;;;18.58;;
75971;SDS011;64651;47.540;19.088;2023-06-19T09:21:42;19.70;;;18.10;;
75971;SDS011;64651;47.540;19.088;2023-06-19T09:26:44;19.00;;;17.08;;
75971;SDS011;64651;47.540;19.088;2023-06-19T09:31:47;17.30;;;15.80;;
75971;SDS011;64651;47.540;19.088;2023-06-19T09:36:49;19.12;;;17.33;;
75971;SDS011;64651;47.540;19.088;2023-06-19T09:41:52;20.90;;;19.00;;
75971;SDS011;64651;47.540;19.088;2023-06-19T09:46:56;18.77;;;17.10;;
75971;SDS011;64651;47.540;19.088;2023-06-19T09:52:01;18.62;;;17.12;;
75971;SDS011;64651;47.540;19.088;2023-06-19T09:57:07;19.83;;;18.00;;
75971;SDS011;64651;47.540;19.088;2023-06-19T10:02:10;19.15;;;17.50;;
75971;SDS011;64651;47.540;19.088;2023-06-19T10:07:20;19.05;;;17.48;;
75971;SDS011;64651;47.540;19.088;2023-06-19T10:12:37;21.83;;;20.10;;
75971;SDS011;64651;47.540;19.088;2023-06-19T10:17:46;22.02;;;20.12;;
75971;SDS011;64651;47.540;19.088;2023-06-19T10:23:13;22.37;;;20.55;;
75971;SDS011;64651;47.540;19.088;2023-06-19T10:28:25;21.90;;;20.20;;
75971;SDS011;64651;47.540;19.088;2023-06-19T10:33:32;21.70;;;20.10;;
75971;SDS011;64651;47.540;19.088;2023-06-19T10:38:36;20.63;;;18.93;;
75971;SDS011;64651;47.540;19.088;2023-06-19T10:43:38;24.35;;;22.37;;
75971;SDS011;64651;47.540;19.088;2023-06-19T10:48:40;21.75;;;19.95;;
75971;SDS011;64651;47.540;19.088;2023-06-19T10:53:43;21.85;;;20.05;;
75971;SDS011;64651;47.540;19.088;2023-06-19T10:58:46;23.40;;;21.60;;
75971;SDS011;64651;47.540;19.088;2023-06-19T11:03:48;24.03;;;22.10;;
75971;SDS011;64651;47.540;19.088;2023-06-19T11:08:51;21.70;;;20.00;;
75971;SDS011;64651;47.540;19.088;2023-06-19T11:13:54;23.02;;;21.23;;
75971;SDS011;64651;47.540;19.088;2023-06-19T11:18:57;22.62;;;20.83;;
75971;SDS011;64651;47.540;19.088;2023-06-19T11:23:59;22.55;;;20.75;;
75971;SDS011;64651;47.540;19.088;2023-06-19T11:29:12;23.63;;;21.67;;
75971;SDS011;64651;47.540;19.088;2023-06-19T11:34:16;20.90;;;19.20;;
75971;SDS011;64651;47.540;19.088;2023-06-19T11:39:25;19.30;;;17.77;;
75971;SDS011;64651;47.540;19.088;2023-06-19T11:44:27;18.92;;;17.15;;
75971;SDS011;64651;47.540;19.088;2023-06-19T11:49:35;15.85;;;14.45;;
75971;SDS011;64651;47.540;19.088;2023-06-19T11:59:48;18.40;;;16.70;;
75971;SDS011;64651;47.540;19.088;2023-06-19T12:05:00;20.40;;;18.70;;
75971;SDS011;64651;47.540;19.088;2023-06-19T12:10:06;21.70;;;19.98;;
75971;SDS011;64651;47.540;19.088;2023-06-19T12:15:12;21.00;;;19.23;;
75971;SDS011;64651;47.540;19.088;2023-06-19T12:20:24;21.80;;;19.97;;
75971;SDS011;64651;47.540;19.088;2023-06-19T12:25:33;21.60;;;19.85;;
75971;SDS011;64651;47.540;19.088;2023-06-19T12:30:45;21.90;;;20.20;;
75971;SDS011;64651;47.540;19.088;2023-06-19T12:35:57;20.02;;;18.33;;
75971;SDS011;64651;47.540;19.088;2023-06-19T12:41:16;20.30;;;18.33;;
75971;SDS011;64651;47.540;19.088;2023-06-19T12:46:21;22.70;;;20.97;;
75971;SDS011;64651;47.540;19.088;2023-06-19T12:51:30;22.60;;;20.67;;
75971;SDS011;64651;47.540;19.088;2023-06-19T12:56:40;24.65;;;22.75;;
75971;SDS011;64651;47.540;19.088;2023-06-19T13:01:49;26.12;;;24.12;;
75971;SDS011;64651;47.540;19.088;2023-06-19T13:07:01;26.95;;;25.05;;
75971;SDS011;64651;47.540;19.088;2023-06-19T13:12:08;29.13;;;26.93;;
75971;SDS011;64651;47.540;19.088;2023-06-19T13:17:15;28.98;;;26.90;;
75971;SDS011;64651;47.540;19.088;2023-06-19T13:22:37;29.37;;;27.37;;
75971;SDS011;64651;47.540;19.088;2023-06-19T13:27:40;31.55;;;29.35;;
75971;SDS011;64651;47.540;19.088;2023-06-19T13:32:43;29.85;;;27.65;;
75971;SDS011;64651;47.540;19.088;2023-06-19T13:38:06;23.60;;;21.60;;
75971;SDS011;64651;47.540;19.088;2023-06-19T13:43:11;20.65;;;18.92;;
75971;SDS011;64651;47.540;19.088;2023-06-19T13:48:16;20.05;;;18.35;;
75971;SDS011;64651;47.540;19.088;2023-06-19T13:53:24;21.08;;;19.27;;
75971;SDS011;64651;47.540;19.088;2023-06-19T13:58:27;21.95;;;20.15;;
75971;SDS011;64651;47.540;19.088;2023-06-19T14:03:33;24.00;;;21.67;;
75971;SDS011;64651;47.540;19.088;2023-06-19T14:08:43;23.02;;;21.23;;
75971;SDS011;64651;47.540;19.088;2023-06-19T14:13:50;23.83;;;21.92;;
75971;SDS011;64651;47.540;19.088;2023-06-19T14:18:53;25.08;;;23.17;;
75971;SDS011;64651;47.540;19.088;2023-06-19T14:24:06;23.92;;;22.15;;
75971;SDS011;64651;47.540;19.088;2023-06-19T14:29:49;24.83;;;23.03;;
75971;SDS011;64651;47.540;19.088;2023-06-19T14:34:52;25.92;;;24.02;;
75971;SDS011;64651;47.540;19.088;2023-06-19T14:40:00;25.50;;;23.70;;
75971;SDS011;64651;47.540;19.088;2023-06-19T14:45:06;23.25;;;21.45;;
75971;SDS011;64651;47.540;19.088;2023-06-19T14:50:39;20.00;;;18.37;;
75971;SDS011;64651;47.540;19.088;2023-06-19T14:55:44;21.47;;;19.67;;
75971;SDS011;64651;47.540;19.088;2023-06-19T15:13:15;21.65;;;19.85;;
75971;SDS011;64651;47.540;19.088;2023-06-19T15:18:21;23.87;;;22.02;;
75971;SDS011;64651;47.540;19.088;2023-06-19T15:23:23;25.30;;;23.20;;
75971;SDS011;64651;47.540;19.088;2023-06-19T15:40:43;19.62;;;17.92;;
75971;SDS011;64651;47.540;19.088;2023-06-19T15:51:32;20.43;;;18.83;;
75971;SDS011;64651;47.540;19.088;2023-06-19T15:56:34;21.50;;;19.55;;
75971;SDS011;64651;47.540;19.088;2023-06-19T16:01:36;19.75;;;18.02;;
75971;SDS011;64651;47.540;19.088;2023-06-19T16:06:39;21.12;;;19.42;;
75971;SDS011;64651;47.540;19.088;2023-06-19T16:11:45;20.30;;;18.60;;
75971;SDS011;64651;47.540;19.088;2023-06-19T16:16:50;20.47;;;18.70;;
75971;SDS011;64651;47.540;19.088;2023-06-19T16:21:52;19.27;;;17.48;;
75971;SDS011;64651;47.540;19.088;2023-06-19T16:26:54;18.90;;;17.30;;
75971;SDS011;64651;47.540;19.088;2023-06-19T16:31:57;17.77;;;16.00;;
75971;SDS011;64651;47.540;19.088;2023-06-19T16:37:13;18.02;;;16.12;;
75971;SDS011;64651;47.540;19.088;2023-06-19T16:42:17;16.80;;;15.20;;
75971;SDS011;64651;47.540;19.088;2023-06-19T16:47:30;16.77;;;15.18;;
75971;SDS011;64651;47.540;19.088;2023-06-19T16:52:35;16.12;;;14.63;;
75971;SDS011;64651;47.540;19.088;2023-06-19T16:57:38;16.60;;;14.87;;
75971;SDS011;64651;47.540;19.088;2023-06-19T17:02:44;15.52;;;13.93;;
75971;SDS011;64651;47.540;19.088;2023-06-19T17:07:51;14.93;;;13.43;;
75971;SDS011;64651;47.540;19.088;2023-06-19T17:12:54;17.85;;;14.15;;
75971;SDS011;64651;47.540;19.088;2023-06-19T17:17:59;14.57;;;12.82;;
75971;SDS011;64651;47.540;19.088;2023-06-19T17:23:05;15.17;;;12.77;;
75971;SDS011;64651;47.540;19.088;2023-06-19T17:28:07;14.82;;;12.75;;
75971;SDS011;64651;47.540;19.088;2023-06-19T17:33:11;13.20;;;11.80;;
75971;SDS011;64651;47.540;19.088;2023-06-19T17:38:14;13.77;;;12.02;;
75971;SDS011;64651;47.540;19.088;2023-06-19T17:43:17;15.88;;;11.95;;
75971;SDS011;64651;47.540;19.088;2023-06-19T17:48:24;13.03;;;11.60;;
75971;SDS011;64651;47.540;19.088;2023-06-19T17:53:27;13.15;;;11.75;;
75971;SDS011;64651;47.540;19.088;2023-06-19T17:58:32;13.70;;;12.00;;
75971;SDS011;64651;47.540;19.088;2023-06-19T18:03:35;16.27;;;11.12;;
75971;SDS011;64651;47.540;19.088;2023-06-19T18:08:41;14.18;;;11.93;;
75971;SDS011;64651;47.540;19.088;2023-06-19T18:13:43;13.60;;;11.57;;
75971;SDS011;64651;47.540;19.088;2023-06-19T18:18:46;12.55;;;8.10;;
75971;SDS011;64651;47.540;19.088;2023-06-19T18:23:49;12.60;;;9.60;;
75971;SDS011;64651;47.540;19.088;2023-06-19T18:28:51;11.95;;;8.38;;
75971;SDS011;64651;47.540;19.088;2023-06-19T18:33:55;12.82;;;9.20;;
75971;SDS011;64651;47.540;19.088;2023-06-19T18:38:57;12.73;;;8.93;;
75971;SDS011;64651;47.540;19.088;2023-06-19T18:43:59;14.20;;;11.07;;
75971;SDS011;64651;47.540;19.088;2023-06-19T18:49:02;14.70;;;10.87;;
75971;SDS011;64651;47.540;19.088;2023-06-19T18:54:04;19.20;;;11.77;;
75971;SDS011;64651;47.540;19.088;2023-06-19T18:59:06;15.43;;;12.07;;
75971;SDS011;64651;47.540;19.088;2023-06-19T19:04:09;15.33;;;10.93;;
75971;SDS011;64651;47.540;19.088;2023-06-19T19:09:11;16.05;;;12.15;;
75971;SDS011;64651;47.540;19.088;2023-06-19T19:14:14;21.03;;;12.07;;
75971;SDS011;64651;47.540;19.088;2023-06-19T19:19:16;16.70;;;12.18;;
75971;SDS011;64651;47.540;19.088;2023-06-19T19:24:18;15.20;;;12.18;;
75971;SDS011;64651;47.540;19.088;2023-06-19T19:29:24;16.17;;;12.87;;
75971;SDS011;64651;47.540;19.088;2023-06-19T19:34:26;16.30;;;12.27;;
75971;SDS011;64651;47.540;19.088;2023-06-19T19:39:31;16.73;;;12.50;;
75971;SDS011;64651;47.540;19.088;2023-06-19T19:44:37;18.67;;;13.32;;
75971;SDS011;64651;47.540;19.088;2023-06-19T19:49:57;17.58;;;13.13;;
75971;SDS011;64651;47.540;19.088;2023-06-19T19:55:15;16.67;;;13.17;;
75971;SDS011;64651;47.540;19.088;2023-06-19T20:00:18;16.65;;;12.75;;
75971;SDS011;64651;47.540;19.088;2023-06-19T20:05:20;17.70;;;13.30;;
75971;SDS011;64651;47.540;19.088;2023-06-19T20:10:23;18.02;;;12.98;;
75971;SDS011;64651;47.540;19.088;2023-06-19T20:15:26;16.30;;;12.90;;
75971;SDS011;64651;47.540;19.088;2023-06-19T20:20:29;18.80;;;13.30;;
75971;SDS011;64651;47.540;19.088;2023-06-19T20:25:31;19.42;;;13.62;;
75971;SDS011;64651;47.540;19.088;2023-06-19T20:30:34;21.70;;;14.20;;
75971;SDS011;64651;47.540;19.088;2023-06-19T20:35:39;18.67;;;13.35;;
75971;SDS011;64651;47.540;19.088;2023-06-19T20:40:42;18.92;;;13.40;;
75971;SDS011;64651;47.540;19.088;2023-06-19T20:45:52;20.23;;;13.57;;
75971;SDS011;64651;47.540;19.088;2023-06-19T20:56:33;22.47;;;14.37;;
75971;SDS011;64651;47.540;19.088;2023-06-19T21:01:36;21.52;;;14.02;;
75971;SDS011;64651;47.540;19.088;2023-06-19T21:06:43;22.10;;;15.05;;
75971;SDS011;64651;47.540;19.088;2023-06-19T21:11:46;20.40;;;13.57;;
75971;SDS011;64651;47.540;19.088;2023-06-19T21:16:51;18.50;;;13.48;;
75971;SDS011;64651;47.540;19.088;2023-06-19T21:21:56;20.77;;;14.07;;
75971;SDS011;64651;47.540;19.088;2023-06-19T21:26:59;19.20;;;13.77;;
75971;SDS011;64651;47.540;19.088;2023-06-19T21:32:03;17.98;;;13.98;;
75971;SDS011;64651;47.540;19.088;2023-06-19T21:37:08;19.83;;;13.40;;
75971;SDS011;64651;47.540;19.088;2023-06-19T21:42:10;18.30;;;13.43;;
75971;SDS011;64651;47.540;19.088;2023-06-19T21:47:12;19.80;;;12.87;;
75971;SDS011;64651;47.540;19.088;2023-06-19T21:52:15;18.08;;;13.35;;
75971;SDS011;64651;47.540;19.088;2023-06-19T21:57:17;17.17;;;12.70;;
75971;SDS011;64651;47.540;19.088;2023-06-19T22:02:19;18.00;;;12.67;;
75971;SDS011;64651;47.540;19.088;2023-06-19T22:07:22;16.62;;;12.13;;
75971;SDS011;64651;47.540;19.088;2023-06-19T22:12:39;16.33;;;11.73;;
75971;SDS011;64651;47.540;19.088;2023-06-19T22:17:43;18.42;;;12.77;;
75971;SDS011;64651;47.540;19.088;2023-06-19T22:22:48;16.27;;;11.52;;
75971;SDS011;64651;47.540;19.088;2023-06-19T22:27:51;16.23;;;11.40;;
75971;SDS011;64651;47.540;19.088;2023-06-19T22:32:56;16.50;;;12.02;;
75971;SDS011;64651;47.540;19.088;2023-06-19T22:37:58;17.80;;;11.33;;
75971;SDS011;64651;47.540;19.088;2023-06-19T22:43:01;16.98;;;11.70;;
75971;SDS011;64651;47.540;19.088;2023-06-19T22:48:03;16.05;;;11.30;;
75971;SDS011;64651;47.540;19.088;2023-06-19T22:53:05;16.30;;;11.53;;
75971;SDS011;64651;47.540;19.088;2023-06-19T22:58:08;16.73;;;11.85;;
75971;SDS011;64651;47.540;19.088;2023-06-19T23:03:10;16.37;;;12.07;;
75971;SDS011;64651;47.540;19.088;2023-06-19T23:08:13;18.08;;;11.55;;
75971;SDS011;64651;47.540;19.088;2023-06-19T23:13:16;15.95;;;10.35;;
75971;SDS011;64651;47.540;19.088;2023-06-19T23:18:18;18.20;;;12.30;;
75971;SDS011;64651;47.540;19.088;2023-06-19T23:23:21;16.77;;;11.65;;
75971;SDS011;64651;47.540;19.088;2023-06-19T23:28:23;17.53;;;11.53;;
75971;SDS011;64651;47.540;19.088;2023-06-19T23:39:42;20.58;;;12.27;;
75971;SDS011;64651;47.540;19.088;2023-06-19T23:44:47;18.20;;;12.03;;
75971;SDS011;64651;47.540;19.088;2023-06-19T23:49:49;18.25;;;12.07;;
75971;SDS011;64651;47.540;19.088;2023-06-19T23:54:51;17.20;;;11.10;;
75971;SDS011;64651;47.540;19.088;2023-06-19T23:59:53;17.50;;;11.70;;
